Time;durP1;ratioP1;P1;durP2;ratioP2;P2;SDS_P1;SDS_P2;PMS_P1;PMS_P2;Temp;Humidity;BMP_temperature;BMP_pressure;BME280_temperature;BME280_humidity;BME280_pressure;Samples;Min_cycle;Max_cycle;Signal;HPM_P1;HPM_P2
2023/04/03 00:14:23;;;;;;;4.60;1.23;;;;;;;;;;4868239;29;20554;-82
2023/04/03 00:20:10;;;;;;;;;;;;;;;;;;;;;
2023/04/03 00:28:51;;;;;;;1.53;0.90;;;;;;;;;;4978887;23;20237;-67
2023/04/03 00:31:16;;;;;;;1.50;1.30;;;;;;;;;;4969753;28;20409;-67
2023/04/03 00:33:41;;;;;;;2.90;1.10;;;;;;;;;;4970420;28;20196;-66
2023/04/03 00:36:09;;;;;;;1.60;1.00;;;;;;;;;;4967192;28;20188;-67
2023/04/03 00:38:34;;;;;;;1.60;1.10;;;;;;;;;;4964234;28;20266;-66
2023/04/03 00:40:59;;;;;;;1.57;1.10;;;;;;;;;;4969113;28;20678;-66
2023/04/03 00:43:26;;;;;;;3.00;1.40;;;;;;;;;;4991277;23;20254;-79
2023/04/03 00:45:52;;;;;;;1.73;1.10;;;;;;;;;;4995382;28;20176;-79
2023/04/03 00:48:37;;;;;;;3.30;1.30;;;;;;;;;;4997831;28;20230;-79
2023/04/03 00:51:04;;;;;;;5.13;1.30;;;;;;;;;;4992370;28;20188;-79
2023/04/03 00:53:31;;;;;;;0.97;0.80;;;;;;;;;;4985607;28;20291;-79
2023/04/03 00:55:57;;;;;;;2.63;1.30;;;;;;;;;;4978548;28;20176;-79
2023/04/03 00:58:26;;;;;;;2.73;1.00;;;;;;;;;;4988613;28;20206;-79
2023/04/03 01:00:57;;;;;;;3.00;1.33;;;;;;;;;;4981786;28;20222;-79
2023/04/03 01:03:22;;;;;;;2.57;1.00;;;;;;;;;;4976366;28;20200;-79
2023/04/03 01:05:48;;;;;;;2.10;1.30;;;;;;;;;;4975624;28;20188;-79
2023/04/03 01:08:13;;;;;;;2.80;1.20;;;;;;;;;;4974729;28;20176;-78
2023/04/03 01:10:38;;;;;;;1.67;1.00;;;;;;;;;;4977187;28;20181;-79
2023/04/03 01:13:17;;;;;;;1.50;1.20;;;;;;;;;;4973378;28;20200;-79
2023/04/03 01:15:42;;;;;;;3.73;1.27;;;;;;;;;;4968828;28;20264;-79
2023/04/03 01:18:09;;;;;;;1.90;1.50;;;;;;;;;;4971340;28;20208;-79
2023/04/03 01:20:53;;;;;;;1.57;1.13;;;;;;;;;;4965046;28;20180;-78
2023/04/03 01:23:31;;;;;;;2.60;1.83;;;;;;;;;;4975062;28;20204;-79
2023/04/03 01:25:57;;;;;;;2.93;1.33;;;;;;;;;;4976138;28;20250;-79
2023/04/03 01:28:24;;;;;;;2.13;1.37;;;;;;;;;;4974059;28;20639;-79
2023/04/03 01:30:55;;;;;;;2.80;1.23;;;;;;;;;;4973700;28;20180;-79
2023/04/03 01:33:20;;;;;;;1.20;1.10;;;;;;;;;;4967748;28;20639;-79
2023/04/03 01:35:45;;;;;;;2.20;1.40;;;;;;;;;;4969149;28;20192;-79
2023/04/03 01:38:11;;;;;;;1.63;1.17;;;;;;;;;;4969967;28;20180;-79
2023/04/03 01:40:36;;;;;;;2.30;1.23;;;;;;;;;;4970771;28;20188;-79
2023/04/03 01:43:01;;;;;;;1.73;1.50;;;;;;;;;;4971595;28;20212;-79
2023/04/03 01:45:27;;;;;;;3.60;1.07;;;;;;;;;;4973121;28;20873;-79
2023/04/03 01:47:52;;;;;;;3.77;1.17;;;;;;;;;;4980194;28;20172;-79
2023/04/03 01:50:17;;;;;;;2.43;1.20;;;;;;;;;;4972713;28;20194;-78
2023/04/03 01:52:42;;;;;;;2.00;1.20;;;;;;;;;;4965693;28;20205;-79
2023/04/03 01:55:08;;;;;;;2.37;1.50;;;;;;;;;;4975759;28;20187;-79
2023/04/03 01:57:33;;;;;;;1.50;1.20;;;;;;;;;;4969753;28;20181;-79
2023/04/03 01:59:58;;;;;;;3.37;1.30;;;;;;;;;;4976626;28;20216;-79
2023/04/03 02:02:23;;;;;;;4.30;1.13;;;;;;;;;;4973947;28;20254;-79
2023/04/03 02:04:49;;;;;;;3.23;1.33;;;;;;;;;;4981220;28;20529;-78
2023/04/03 02:07:14;;;;;;;1.60;1.50;;;;;;;;;;4972471;28;20180;-78
2023/04/03 02:09:39;;;;;;;2.23;1.20;;;;;;;;;;4966715;28;20180;-78
2023/04/03 02:12:04;;;;;;;2.60;1.40;;;;;;;;;;4972516;28;20200;-78
2023/04/03 02:14:30;;;;;;;2.10;1.50;;;;;;;;;;4975930;28;20674;-78
2023/04/03 02:16:55;;;;;;;2.37;1.40;;;;;;;;;;4965663;28;20230;-78
2023/04/03 02:19:20;;;;;;;2.50;1.10;;;;;;;;;;4979900;28;20747;-78
2023/04/03 02:21:45;;;;;;;2.50;1.50;;;;;;;;;;4975627;28;20515;-78
2023/04/03 02:24:11;;;;;;;2.47;1.20;;;;;;;;;;4978535;28;20182;-78
2023/04/03 02:26:36;;;;;;;2.20;1.83;;;;;;;;;;4976686;28;20524;-79
2023/04/03 02:29:01;;;;;;;3.13;1.50;;;;;;;;;;4974928;28;20180;-78
2023/04/03 02:31:26;;;;;;;3.57;1.43;;;;;;;;;;4976645;28;20191;-79
2023/04/03 02:33:51;;;;;;;5.07;1.50;;;;;;;;;;4975846;28;20260;-78
2023/04/03 02:36:17;;;;;;;3.90;1.70;;;;;;;;;;4975678;28;20172;-78
2023/04/03 02:38:42;;;;;;;3.00;1.67;;;;;;;;;;4975419;28;20204;-78
2023/04/03 02:41:09;;;;;;;2.20;1.80;;;;;;;;;;4977511;28;20270;-78
2023/04/03 02:43:34;;;;;;;3.40;1.60;;;;;;;;;;4970461;28;20716;-78
2023/04/03 02:45:59;;;;;;;4.40;1.77;;;;;;;;;;4976221;28;20745;-78
2023/04/03 02:48:25;;;;;;;4.40;1.57;;;;;;;;;;4976700;28;20646;-78
2023/04/03 02:50:50;;;;;;;3.77;1.50;;;;;;;;;;4974561;28;20275;-78
2023/04/03 02:53:15;;;;;;;4.73;1.63;;;;;;;;;;4977139;28;20207;-78
2023/04/03 02:55:41;;;;;;;3.70;1.50;;;;;;;;;;4974686;28;20207;-79
2023/04/03 02:58:06;;;;;;;2.07;1.40;;;;;;;;;;4969743;28;20192;-78
2023/04/03 03:00:32;;;;;;;2.03;1.30;;;;;;;;;;4979886;28;20251;-78
2023/04/03 03:02:57;;;;;;;4.57;1.50;;;;;;;;;;4968391;28;20295;-79
2023/04/03 03:05:22;;;;;;;1.83;1.20;;;;;;;;;;4967135;28;20283;-78
2023/04/03 03:07:47;;;;;;;1.60;1.50;;;;;;;;;;4971627;28;20231;-78
2023/04/03 03:10:13;;;;;;;3.40;2.40;;;;;;;;;;4967978;28;20223;-78
2023/04/03 03:12:38;;;;;;;5.43;1.60;;;;;;;;;;4972299;28;20208;-79
2023/04/03 03:15:03;;;;;;;1.77;1.20;;;;;;;;;;4973420;28;20543;-78
2023/04/03 03:17:29;;;;;;;7.60;2.50;;;;;;;;;;4970842;28;20560;-78
2023/04/03 03:19:54;;;;;;;2.03;1.40;;;;;;;;;;4968936;28;20200;-79
2023/04/03 03:22:19;;;;;;;2.93;1.60;;;;;;;;;;4982458;28;20196;-78
2023/04/03 03:24:45;;;;;;;2.10;1.70;;;;;;;;;;4997646;28;20212;-79
2023/04/03 03:27:10;;;;;;;3.87;1.47;;;;;;;;;;4996778;28;20214;-78
2023/04/03 03:29:35;;;;;;;3.13;1.37;;;;;;;;;;4990047;28;20164;-78
2023/04/03 03:32:00;;;;;;;4.03;1.80;;;;;;;;;;4998990;28;20296;-78
2023/04/03 03:34:25;;;;;;;6.83;1.60;;;;;;;;;;5006188;28;20169;-79
2023/04/03 03:36:50;;;;;;;7.20;1.80;;;;;;;;;;4985598;28;20662;-78
2023/04/03 03:39:16;;;;;;;3.03;1.47;;;;;;;;;;4973013;28;20208;-79
2023/04/03 03:41:41;;;;;;;3.37;1.80;;;;;;;;;;4974500;28;20180;-79
2023/04/03 03:44:06;;;;;;;2.60;1.50;;;;;;;;;;4984292;28;20191;-78
2023/04/03 03:46:31;;;;;;;2.13;1.37;;;;;;;;;;4967974;28;20180;-79
2023/04/03 03:48:57;;;;;;;1.87;1.40;;;;;;;;;;4972218;28;20177;-78
2023/04/03 03:51:22;;;;;;;5.73;1.47;;;;;;;;;;4976448;28;20239;-78
2023/04/03 03:53:47;;;;;;;7.20;1.90;;;;;;;;;;4981895;28;20751;-79
2023/04/03 03:56:12;;;;;;;3.60;2.00;;;;;;;;;;4975043;28;20180;-78
2023/04/03 03:58:37;;;;;;;3.57;1.60;;;;;;;;;;4971158;28;20239;-78
2023/04/03 04:01:03;;;;;;;5.43;2.00;;;;;;;;;;4973368;28;20185;-79
2023/04/03 04:03:29;;;;;;;3.03;1.63;;;;;;;;;;4972235;28;20204;-78
2023/04/03 04:05:54;;;;;;;4.13;2.00;;;;;;;;;;4969766;28;20223;-78
2023/04/03 04:08:20;;;;;;;2.70;1.80;;;;;;;;;;4977650;28;20219;-78
2023/04/03 04:10:45;;;;;;;1.83;1.50;;;;;;;;;;4974716;28;20180;-79
2023/04/03 04:13:10;;;;;;;5.47;1.90;;;;;;;;;;4977573;28;20558;-79
2023/04/03 04:15:35;;;;;;;2.40;1.80;;;;;;;;;;4968145;28;20176;-78
2023/04/03 04:18:00;;;;;;;2.67;1.80;;;;;;;;;;4972633;28;20188;-78
2023/04/03 04:20:26;;;;;;;4.10;2.20;;;;;;;;;;4967790;28;20219;-78
2023/04/03 04:22:51;;;;;;;3.10;2.00;;;;;;;;;;4972702;28;20208;-78
2023/04/03 04:25:16;;;;;;;3.67;1.97;;;;;;;;;;4972568;28;20184;-78
2023/04/03 04:27:41;;;;;;;3.67;2.20;;;;;;;;;;4978149;28;20157;-78
2023/04/03 04:30:07;;;;;;;2.90;1.70;;;;;;;;;;4972805;28;20192;-78
2023/04/03 04:32:32;;;;;;;3.27;2.00;;;;;;;;;;4974077;28;20299;-78
2023/04/03 04:34:57;;;;;;;5.57;2.20;;;;;;;;;;4977618;28;20198;-78
2023/04/03 04:37:22;;;;;;;5.33;1.73;;;;;;;;;;4974095;28;20239;-78
2023/04/03 04:39:48;;;;;;;3.93;2.03;;;;;;;;;;4973194;28;20220;-78
2023/04/03 04:42:13;;;;;;;4.73;2.03;;;;;;;;;;4971495;28;20213;-79
2023/04/03 04:44:39;;;;;;;5.60;2.13;;;;;;;;;;4968229;28;20192;-78
2023/04/03 04:47:04;;;;;;;3.07;1.93;;;;;;;;;;4967020;28;20184;-78
2023/04/03 04:49:29;;;;;;;3.27;1.87;;;;;;;;;;4976462;28;20201;-78
2023/04/03 04:51:55;;;;;;;2.53;1.90;;;;;;;;;;4986350;28;20185;-78
2023/04/03 04:54:20;;;;;;;7.07;2.10;;;;;;;;;;4984440;28;20189;-78
2023/04/03 04:56:45;;;;;;;2.30;1.87;;;;;;;;;;4995545;28;20176;-78
2023/04/03 04:59:10;;;;;;;5.77;2.50;;;;;;;;;;4994391;28;20227;-78
2023/04/03 05:01:36;;;;;;;6.30;2.60;;;;;;;;;;4996032;28;20165;-78
2023/04/03 05:04:01;;;;;;;4.00;2.10;;;;;;;;;;4997893;28;20235;-78
2023/04/03 05:06:26;;;;;;;3.50;1.90;;;;;;;;;;4996730;28;20293;-78
2023/04/03 05:08:51;;;;;;;5.23;2.83;;;;;;;;;;4996865;28;20176;-79
2023/04/03 05:11:17;;;;;;;6.03;3.30;;;;;;;;;;4997602;28;20227;-78
2023/04/03 05:13:42;;;;;;;6.40;3.57;;;;;;;;;;4996768;28;20200;-78
2023/04/03 05:16:07;;;;;;;3.60;2.27;;;;;;;;;;4997672;28;20195;-78
2023/04/03 05:18:32;;;;;;;4.60;2.23;;;;;;;;;;4991285;28;20200;-78
2023/04/03 05:20:58;;;;;;;4.30;2.20;;;;;;;;;;4994751;28;20191;-78
2023/04/03 05:23:23;;;;;;;3.97;2.10;;;;;;;;;;4996089;28;20253;-78
2023/04/03 05:25:49;;;;;;;3.50;2.00;;;;;;;;;;4995360;28;20180;-78
2023/04/03 05:28:14;;;;;;;5.80;2.27;;;;;;;;;;4988720;28;20188;-78
2023/04/03 05:30:40;;;;;;;6.37;2.60;;;;;;;;;;4979275;28;20181;-78
2023/04/03 05:33:05;;;;;;;10.23;3.07;;;;;;;;;;4980835;28;20247;-78
2023/04/03 05:35:31;;;;;;;3.67;2.00;;;;;;;;;;4979000;28;20188;-79
2023/04/03 05:37:56;;;;;;;3.70;2.10;;;;;;;;;;4970227;28;20180;-78
2023/04/03 05:40:21;;;;;;;6.50;2.67;;;;;;;;;;4977412;28;20211;-78
2023/04/03 05:42:46;;;;;;;6.43;2.63;;;;;;;;;;4975494;28;20231;-78
2023/04/03 05:45:12;;;;;;;3.73;2.10;;;;;;;;;;4975693;28;20184;-78
2023/04/03 05:47:37;;;;;;;5.13;2.60;;;;;;;;;;4971918;28;20263;-79
2023/04/03 05:50:02;;;;;;;4.30;3.07;;;;;;;;;;4977405;28;20613;-79
2023/04/03 05:52:29;;;;;;;5.23;2.50;;;;;;;;;;4978728;28;20196;-78
2023/04/03 05:54:55;;;;;;;4.63;2.80;;;;;;;;;;4975965;28;20184;-79
2023/04/03 05:57:20;;;;;;;2.67;1.97;;;;;;;;;;4976085;28;20239;-79
2023/04/03 05:59:46;;;;;;;14.53;3.30;;;;;;;;;;4976126;28;20219;-79
2023/04/03 06:02:21;;;;;;;3.57;2.30;;;;;;;;;;4974405;28;20243;-79
2023/04/03 06:04:47;;;;;;;4.57;2.30;;;;;;;;;;4977906;28;20334;-78
2023/04/03 06:07:13;;;;;;;4.53;2.47;;;;;;;;;;4980655;28;20187;-79
2023/04/03 06:09:39;;;;;;;5.37;2.10;;;;;;;;;;4977248;28;20172;-79
2023/04/03 06:12:04;;;;;;;6.50;2.13;;;;;;;;;;4976188;28;20200;-78
2023/04/03 06:14:30;;;;;;;4.40;2.60;;;;;;;;;;4975434;28;20169;-79
2023/04/03 06:16:55;;;;;;;2.83;1.67;;;;;;;;;;4975942;28;20178;-78
2023/04/03 06:19:20;;;;;;;7.10;2.57;;;;;;;;;;4972615;28;20751;-78
2023/04/03 06:21:47;;;;;;;3.83;1.80;;;;;;;;;;4974995;28;21587;-78
2023/04/03 06:24:13;;;;;;;2.53;1.70;;;;;;;;;;4979553;28;20653;-78
2023/04/03 06:26:38;;;;;;;7.03;2.27;;;;;;;;;;4977046;28;20546;-78
2023/04/03 06:29:04;;;;;;;10.07;2.53;;;;;;;;;;4982350;28;20247;-78
2023/04/03 06:31:29;;;;;;;4.93;2.00;;;;;;;;;;4977349;28;20181;-78
2023/04/03 06:33:55;;;;;;;4.77;2.17;;;;;;;;;;4974279;28;20883;-79
2023/04/03 06:36:20;;;;;;;3.63;1.83;;;;;;;;;;4980590;28;20198;-78
2023/04/03 06:38:46;;;;;;;6.53;2.13;;;;;;;;;;4983783;28;20278;-78
2023/04/03 06:41:11;;;;;;;3.27;1.67;;;;;;;;;;4978521;28;20195;-78
2023/04/03 06:43:36;;;;;;;2.53;1.53;;;;;;;;;;4972509;28;20239;-80
2023/04/03 06:46:02;;;;;;;3.47;1.97;;;;;;;;;;4977295;28;20179;-81
2023/04/03 06:48:27;;;;;;;3.17;1.70;;;;;;;;;;4969151;28;20676;-80
2023/04/03 06:50:52;;;;;;;5.60;2.00;;;;;;;;;;4975561;28;20248;-81
2023/04/03 06:53:18;;;;;;;3.37;1.80;;;;;;;;;;4975851;28;20217;-80
2023/04/03 06:55:43;;;;;;;6.90;1.77;;;;;;;;;;4976647;28;20215;-80
2023/04/03 06:58:09;;;;;;;2.50;1.80;;;;;;;;;;4977307;28;20259;-81
2023/04/03 07:00:34;;;;;;;2.63;1.80;;;;;;;;;;4977428;28;20216;-80
2023/04/03 07:02:59;;;;;;;3.70;1.73;;;;;;;;;;4975198;28;20192;-81
2023/04/03 07:05:25;;;;;;;6.87;2.00;;;;;;;;;;4977839;28;20235;-80
2023/04/03 07:07:51;;;;;;;4.23;1.97;;;;;;;;;;4973422;28;20188;-80
2023/04/03 07:10:16;;;;;;;6.17;1.93;;;;;;;;;;4975954;28;20541;-80
2023/04/03 07:12:42;;;;;;;2.50;1.70;;;;;;;;;;4987130;28;20579;-83
2023/04/03 07:15:08;;;;;;;5.77;1.93;;;;;;;;;;4978142;28;20187;-81
2023/04/03 07:17:33;;;;;;;5.30;2.13;;;;;;;;;;4976660;28;20222;-80
2023/04/03 07:19:59;;;;;;;2.13;1.60;;;;;;;;;;4978922;28;20204;-84
2023/04/03 07:22:24;;;;;;;7.53;2.10;;;;;;;;;;4971362;28;20196;-82
2023/04/03 07:24:49;;;;;;;3.40;1.60;;;;;;;;;;4976868;28;20993;-81
2023/04/03 07:27:14;;;;;;;4.83;1.87;;;;;;;;;;4981973;28;20287;-82
2023/04/03 07:29:40;;;;;;;3.70;1.87;;;;;;;;;;4976998;28;20184;-81
2023/04/03 07:32:06;;;;;;;5.33;2.20;;;;;;;;;;4980705;28;20200;-80
2023/04/03 07:34:32;;;;;;;4.43;1.87;;;;;;;;;;4985220;28;20706;-80
2023/04/03 07:36:57;;;;;;;4.63;1.50;;;;;;;;;;4977657;28;21005;-78
2023/04/03 07:39:22;;;;;;;2.43;2.03;;;;;;;;;;4979332;28;20208;-78
2023/04/03 07:41:48;;;;;;;3.40;1.80;;;;;;;;;;4980905;28;20180;-81
2023/04/03 07:44:13;;;;;;;2.83;1.80;;;;;;;;;;4964550;28;20247;-78
2023/04/03 07:46:38;;;;;;;6.60;1.87;;;;;;;;;;4974774;28;20199;-79
2023/04/03 07:49:03;;;;;;;3.47;1.83;;;;;;;;;;4978719;28;20694;-79
2023/04/03 07:51:29;;;;;;;5.60;1.83;;;;;;;;;;4974493;28;20177;-78
2023/04/03 07:53:55;;;;;;;5.20;1.90;;;;;;;;;;4976104;28;20553;-79
2023/04/03 07:56:20;;;;;;;4.13;1.97;;;;;;;;;;4978680;28;20189;-79
2023/04/03 07:58:46;;;;;;;3.53;1.60;;;;;;;;;;4981090;28;20210;-81
2023/04/03 08:01:11;;;;;;;2.43;1.40;;;;;;;;;;4980824;28;20181;-79
2023/04/03 08:03:37;;;;;;;4.70;1.50;;;;;;;;;;4985502;28;20200;-79
2023/04/03 08:06:04;;;;;;;3.80;1.70;;;;;;;;;;4982021;28;20564;-80
2023/04/03 08:08:29;;;;;;;4.27;1.17;;;;;;;;;;4981262;28;20187;-79
2023/04/03 08:10:55;;;;;;;7.27;1.73;;;;;;;;;;4983113;28;20172;-79
2023/04/03 08:13:20;;;;;;;3.47;1.67;;;;;;;;;;4984248;28;20632;-79
2023/04/03 08:15:46;;;;;;;4.80;1.83;;;;;;;;;;4984861;28;20259;-79
2023/04/03 08:18:11;;;;;;;4.20;1.60;;;;;;;;;;4976072;28;20235;-79
2023/04/03 08:20:38;;;;;;;2.10;1.27;;;;;;;;;;4971484;28;20700;-81
2023/04/03 08:23:03;;;;;;;3.20;1.93;;;;;;;;;;4982282;28;20228;-79
2023/04/03 08:25:29;;;;;;;7.37;2.30;;;;;;;;;;4974726;28;20183;-78
2023/04/03 08:27:54;;;;;;;4.57;1.50;;;;;;;;;;4980255;28;20203;-78
2023/04/03 08:30:20;;;;;;;1.27;1.10;;;;;;;;;;4996126;28;20188;-80
2023/04/03 08:32:45;;;;;;;3.67;1.10;;;;;;;;;;4976214;28;20197;-78
2023/04/03 08:35:11;;;;;;;2.27;1.30;;;;;;;;;;4977995;28;20674;-78
2023/04/03 08:37:37;;;;;;;1.80;1.43;;;;;;;;;;4977421;28;20176;-78
2023/04/03 08:40:03;;;;;;;2.07;1.40;;;;;;;;;;4976830;28;20211;-79
2023/04/03 08:42:55;;;;;;;3.70;1.03;;;;;;;;;;4976704;28;20208;-79
2023/04/03 08:45:50;;;;;;;2.63;1.17;;;;;;;;;;4961071;28;20654;-78
2023/04/03 08:48:19;;;;;;;4.57;1.10;;;;;;;;;;4987978;28;20717;-78
2023/04/03 08:50:49;;;;;;;2.37;1.23;;;;;;;;;;4976334;28;20182;-78
2023/04/03 08:53:15;;;;;;;2.23;1.00;;;;;;;;;;4980560;28;20223;-78
2023/04/03 08:55:45;;;;;;;3.07;1.57;;;;;;;;;;4979020;28;20701;-78
2023/04/03 08:58:16;;;;;;;1.17;1.00;;;;;;;;;;4981142;28;20267;-78
2023/04/03 09:00:47;;;;;;;4.20;1.07;;;;;;;;;;4977014;28;20191;-79
2023/04/03 09:03:13;;;;;;;3.37;1.33;;;;;;;;;;4993456;28;20208;-78
2023/04/03 09:05:46;;;;;;;2.00;1.00;;;;;;;;;;4977530;28;20255;-77
2023/04/03 09:08:15;;;;;;;3.93;1.77;;;;;;;;;;4975683;28;20219;-79
2023/04/03 09:10:41;;;;;;;1.97;1.30;;;;;;;;;;4975515;28;20658;-77
2023/04/03 09:13:11;;;;;;;4.60;1.60;;;;;;;;;;4975214;28;20196;-78
2023/04/03 09:15:36;;;;;;;1.83;0.70;;;;;;;;;;4975959;28;20714;-77
2023/04/03 09:18:02;;;;;;;1.67;0.80;;;;;;;;;;4975669;28;20184;-77
2023/04/03 09:20:40;;;;;;;2.70;0.80;;;;;;;;;;4976500;28;20249;-77
2023/04/03 09:23:24;;;;;;;1.33;0.87;;;;;;;;;;4991066;28;20219;-77
2023/04/03 09:25:51;;;;;;;1.17;0.60;;;;;;;;;;4980157;28;20176;-77
2023/04/03 09:28:16;;;;;;;2.10;0.60;;;;;;;;;;4983020;28;20673;-78
2023/04/03 09:30:41;;;;;;;0.73;0.60;;;;;;;;;;4983008;28;20184;-77
2023/04/03 09:33:08;;;;;;;0.90;0.63;;;;;;;;;;4977233;28;20291;-78
2023/04/03 09:35:35;;;;;;;0.93;0.70;;;;;;;;;;4975737;28;20701;-79
2023/04/03 09:38:02;;;;;;;1.97;0.60;;;;;;;;;;4979051;28;20180;-79
2023/04/03 09:40:35;;;;;;;0.98;0.38;;;;;;;;;;4976702;28;20261;-78
2023/04/03 09:43:20;;;;;;;1.13;0.68;;;;;;;;;;4981821;28;20412;-77
2023/04/03 09:45:47;;;;;;;3.90;0.93;;;;;;;;;;4972055;28;20189;-77
2023/04/03 09:48:12;;;;;;;1.27;0.50;;;;;;;;;;4977526;28;20271;-77
2023/04/03 09:50:38;;;;;;;0.47;0.45;;;;;;;;;;4976361;28;20684;-77
2023/04/03 09:53:07;;;;;;;1.85;0.68;;;;;;;;;;4980041;28;20196;-77
2023/04/03 09:55:41;;;;;;;0.63;0.63;;;;;;;;;;4972592;28;20184;-77
2023/04/03 09:58:23;;;;;;;0.90;0.40;;;;;;;;;;4973065;28;20168;-78
2023/04/03 10:00:53;;;;;;;1.20;0.50;;;;;;;;;;4973842;28;20184;-76
2023/04/03 10:03:30;;;;;;;1.07;0.70;;;;;;;;;;4975638;28;20275;-78
2023/04/03 10:05:57;;;;;;;1.13;0.70;;;;;;;;;;4973969;28;20172;-77
2023/04/03 10:08:25;;;;;;;1.83;0.70;;;;;;;;;;4973773;28;20249;-78
2023/04/03 10:11:05;;;;;;;1.53;0.57;;;;;;;;;;4972464;28;20183;-78
2023/04/03 10:13:31;;;;;;;1.10;0.50;;;;;;;;;;4974770;28;20599;-77
2023/04/03 10:16:06;;;;;;;0.57;0.57;;;;;;;;;;4976704;28;20238;-78
2023/04/03 10:18:32;;;;;;;0.60;0.32;;;;;;;;;;4973662;28;20176;-76
2023/04/03 10:21:01;;;;;;;0.93;0.40;;;;;;;;;;4972633;28;20235;-76
2023/04/03 10:23:31;;;;;;;1.35;0.50;;;;;;;;;;4971632;28;20597;-78
2023/04/03 10:26:11;;;;;;;0.85;0.50;;;;;;;;;;4973649;28;20738;-77
2023/04/03 10:28:53;;;;;;;1.70;0.45;;;;;;;;;;4973171;28;20176;-77
2023/04/03 10:31:24;;;;;;;1.42;0.50;;;;;;;;;;4968576;28;20175;-77
2023/04/03 10:33:54;;;;;;;0.43;0.43;;;;;;;;;;4972734;28;20204;-79
2023/04/03 10:36:19;;;;;;;0.45;0.45;;;;;;;;;;4972442;28;20183;-77
2023/04/03 10:38:54;;;;;;;0.50;0.40;;;;;;;;;;4973125;28;20200;-78
2023/04/03 10:41:38;;;;;;;0.60;0.40;;;;;;;;;;4972963;28;20183;-78
2023/04/03 10:44:15;;;;;;;1.75;0.30;;;;;;;;;;4978325;28;20708;-76
2023/04/03 10:46:43;;;;;;;1.45;0.30;;;;;;;;;;4974190;28;20168;-77
2023/04/03 10:49:13;;;;;;;0.35;0.30;;;;;;;;;;4975269;28;20550;-76
2023/04/03 10:51:50;;;;;;;1.60;0.40;;;;;;;;;;4973398;28;20179;-77
2023/04/03 10:54:26;;;;;;;0.85;0.38;;;;;;;;;;4974985;28;20176;-76
2023/04/03 10:56:53;;;;;;;2.95;0.50;;;;;;;;;;4974749;28;20176;-77
2023/04/03 10:59:18;;;;;;;1.50;0.40;;;;;;;;;;4974856;28;20204;-77
2023/04/03 11:01:49;;;;;;;0.40;0.35;;;;;;;;;;4974874;28;20709;-77
2023/04/03 11:04:16;;;;;;;0.32;0.28;;;;;;;;;;4974755;28;20194;-76
2023/04/03 11:06:41;;;;;;;0.75;0.28;;;;;;;;;;4980933;28;20196;-77
2023/04/03 11:09:16;;;;;;;0.20;0.20;;;;;;;;;;4970662;28;20606;-78
2023/04/03 11:11:42;;;;;;;0.30;0.30;;;;;;;;;;4971559;28;20176;-76
2023/04/03 11:14:26;;;;;;;0.57;0.40;;;;;;;;;;4972131;28;20184;-76
2023/04/03 11:17:10;;;;;;;0.70;0.40;;;;;;;;;;4971246;28;20184;-76
2023/04/03 11:19:41;;;;;;;0.45;0.35;;;;;;;;;;4972229;28;20737;-75
2023/04/03 11:22:30;;;;;;;1.70;0.40;;;;;;;;;;4973003;28;20223;-76
2023/04/03 11:25:04;;;;;;;3.90;0.40;;;;;;;;;;4971235;28;20188;-76
2023/04/03 11:27:33;;;;;;;1.30;0.30;;;;;;;;;;4973109;28;20173;-77
2023/04/03 11:29:59;;;;;;;0.43;0.35;;;;;;;;;;4969909;28;20617;-76
2023/04/03 11:32:40;;;;;;;0.73;0.40;;;;;;;;;;4973001;28;20197;-76
2023/04/03 11:35:07;;;;;;;0.50;0.38;;;;;;;;;;4973593;28;20176;-76
2023/04/03 11:37:38;;;;;;;0.80;0.40;;;;;;;;;;4973591;28;20183;-76
2023/04/03 11:40:09;;;;;;;1.30;0.50;;;;;;;;;;4971338;28;20200;-77
2023/04/03 11:42:42;;;;;;;1.27;0.32;;;;;;;;;;4973310;28;20224;-76
2023/04/03 11:45:16;;;;;;;2.30;0.40;;;;;;;;;;4968208;28;20601;-75
2023/04/03 11:47:45;;;;;;;0.70;0.50;;;;;;;;;;4980724;28;20630;-76
2023/04/03 11:50:37;;;;;;;0.55;0.40;;;;;;;;;;4971954;28;20653;-75
2023/04/03 11:53:05;;;;;;;0.60;0.50;;;;;;;;;;4973679;28;20299;-75
2023/04/03 11:55:30;;;;;;;0.80;0.45;;;;;;;;;;4974556;28;20188;-79
2023/04/03 11:57:58;;;;;;;1.08;0.60;;;;;;;;;;4974437;28;20188;-76
2023/04/03 12:00:42;;;;;;;0.65;0.40;;;;;;;;;;4972853;28;20299;-77
2023/04/03 12:03:23;;;;;;;2.05;0.47;;;;;;;;;;4972705;28;20544;-75
2023/04/03 12:05:48;;;;;;;1.02;0.93;;;;;;;;;;4973067;28;20180;-75
2023/04/03 12:08:30;;;;;;;1.77;0.40;;;;;;;;;;4971960;28;20168;-76
2023/04/03 12:11:14;;;;;;;0.63;0.50;;;;;;;;;;4972274;28;20590;-76
2023/04/03 12:13:39;;;;;;;2.50;0.73;;;;;;;;;;4980200;28;20187;-75
2023/04/03 12:16:19;;;;;;;1.27;0.60;;;;;;;;;;4973327;28;20180;-75
2023/04/03 12:18:58;;;;;;;1.58;0.68;;;;;;;;;;4967070;28;20179;-76
2023/04/03 12:21:43;;;;;;;3.20;0.93;;;;;;;;;;4971557;28;20179;-77
2023/04/03 12:24:09;;;;;;;0.95;0.70;;;;;;;;;;4964002;28;20184;-75
2023/04/03 12:26:40;;;;;;;2.75;0.60;;;;;;;;;;4979706;28;20535;-76
2023/04/03 12:29:13;;;;;;;1.23;0.60;;;;;;;;;;4972372;28;20680;-75
2023/04/03 12:31:43;;;;;;;2.25;0.60;;;;;;;;;;4975965;28;20299;-76
2023/04/03 12:34:11;;;;;;;3.05;0.50;;;;;;;;;;4972779;28;20203;-75
2023/04/03 12:36:41;;;;;;;1.88;0.90;;;;;;;;;;4970865;28;20185;-76
2023/04/03 12:39:16;;;;;;;2.42;0.70;;;;;;;;;;4971263;28;20582;-75
2023/04/03 12:41:41;;;;;;;0.68;0.52;;;;;;;;;;4974071;28;20182;-76
2023/04/03 12:44:12;;;;;;;0.73;0.68;;;;;;;;;;4966179;28;20196;-76
2023/04/03 12:46:42;;;;;;;2.45;0.55;;;;;;;;;;4976458;28;20600;-75
2023/04/03 12:49:34;;;;;;;0.85;0.60;;;;;;;;;;4977380;28;20255;-76
2023/04/03 12:51:59;;;;;;;1.05;0.73;;;;;;;;;;4975832;28;20188;-75
2023/04/03 12:54:39;;;;;;;2.70;0.55;;;;;;;;;;4975160;28;20183;-77
2023/04/03 12:57:23;;;;;;;1.67;0.50;;;;;;;;;;4974875;28;20650;-75
2023/04/03 12:59:49;;;;;;;1.63;1.00;;;;;;;;;;4971840;28;20295;-75
2023/04/03 13:02:23;;;;;;;1.13;0.60;;;;;;;;;;4970334;28;20243;-75
2023/04/03 13:04:48;;;;;;;1.88;0.70;;;;;;;;;;4974954;28;20172;-75
2023/04/03 13:07:25;;;;;;;3.20;0.82;;;;;;;;;;4971202;28;20179;-76
2023/04/03 13:10:00;;;;;;;0.63;0.50;;;;;;;;;;4971498;28;20195;-76
2023/04/03 13:12:26;;;;;;;1.45;0.80;;;;;;;;;;4977559;28;20188;-75
2023/04/03 13:14:53;;;;;;;1.50;0.60;;;;;;;;;;4981290;28;20279;-76
2023/04/03 13:17:18;;;;;;;1.10;0.70;;;;;;;;;;4979199;28;20200;-76
2023/04/03 13:19:45;;;;;;;0.73;0.63;;;;;;;;;;4974221;28;20658;-76
2023/04/03 13:22:19;;;;;;;2.83;0.80;;;;;;;;;;4977013;28;20291;-76
2023/04/03 13:24:46;;;;;;;1.65;0.50;;;;;;;;;;4974002;28;20594;-77
2023/04/03 13:27:12;;;;;;;0.68;0.55;;;;;;;;;;4976179;28;20243;-76
2023/04/03 13:29:38;;;;;;;1.27;0.68;;;;;;;;;;4977444;28;20169;-76
2023/04/03 13:32:04;;;;;;;0.85;0.40;;;;;;;;;;4981820;28;20196;-77
2023/04/03 13:34:37;;;;;;;0.50;0.47;;;;;;;;;;4977005;28;20172;-76
2023/04/03 13:37:04;;;;;;;1.67;0.80;;;;;;;;;;4977339;28;20265;-77
2023/04/03 13:39:34;;;;;;;0.93;0.65;;;;;;;;;;4974769;28;20290;-77
2023/04/03 13:42:03;;;;;;;1.52;0.70;;;;;;;;;;4975692;28;20204;-75
2023/04/03 13:44:31;;;;;;;2.58;0.70;;;;;;;;;;4966855;28;20646;-76
2023/04/03 13:47:15;;;;;;;0.68;0.50;;;;;;;;;;4968309;28;20661;-76
2023/04/03 13:49:45;;;;;;;0.88;0.57;;;;;;;;;;4977228;28;20175;-76
2023/04/03 13:52:37;;;;;;;2.60;0.80;;;;;;;;;;4970925;28;20563;-78
2023/04/03 13:55:15;;;;;;;3.13;0.70;;;;;;;;;;4974801;28;20176;-76
2023/04/03 13:57:58;;;;;;;2.33;0.90;;;;;;;;;;4984209;28;20180;-76
2023/04/03 14:00:56;;;;;;;1.27;0.60;;;;;;;;;;4972901;28;20204;-76
2023/04/03 14:03:25;;;;;;;0.70;0.70;;;;;;;;;;4971256;28;20220;-76
2023/04/03 14:05:50;;;;;;;1.27;0.82;;;;;;;;;;4975819;28;20280;-77
2023/04/03 14:08:16;;;;;;;3.53;0.60;;;;;;;;;;4976047;28;20208;-76
2023/04/03 14:10:41;;;;;;;1.67;0.80;;;;;;;;;;4975751;28;20172;-76
2023/04/03 14:13:09;;;;;;;1.67;0.80;;;;;;;;;;4979539;28;20207;-76
2023/04/03 14:15:34;;;;;;;1.88;0.52;;;;;;;;;;4969232;28;20255;-76
2023/04/03 14:18:00;;;;;;;1.67;0.70;;;;;;;;;;4973516;28;20638;-75
2023/04/03 14:20:26;;;;;;;1.42;0.60;;;;;;;;;;4975700;28;20207;-76
2023/04/03 14:22:52;;;;;;;1.08;0.70;;;;;;;;;;4974945;28;20200;-77
2023/04/03 14:25:18;;;;;;;1.75;0.73;;;;;;;;;;4977429;28;20255;-76
2023/04/03 14:27:45;;;;;;;0.88;0.50;;;;;;;;;;4976868;28;20172;-76
2023/04/03 14:30:15;;;;;;;1.38;0.50;;;;;;;;;;4973716;28;20184;-76
2023/04/03 14:32:40;;;;;;;1.33;0.80;;;;;;;;;;4974839;28;20231;-76
2023/04/03 14:35:06;;;;;;;2.30;0.60;;;;;;;;;;4969688;28;20211;-76
2023/04/03 14:37:31;;;;;;;2.00;0.65;;;;;;;;;;4975722;28;20215;-75
2023/04/03 14:39:57;;;;;;;2.30;0.60;;;;;;;;;;4974788;28;20443;-76
2023/04/03 14:42:24;;;;;;;1.05;0.43;;;;;;;;;;4974632;28;20212;-75
2023/04/03 14:44:50;;;;;;;1.20;0.63;;;;;;;;;;4973371;28;20179;-76
2023/04/03 14:47:18;;;;;;;1.42;0.80;;;;;;;;;;4973545;28;20376;-76
2023/04/03 14:49:43;;;;;;;1.67;0.90;;;;;;;;;;4969570;28;20639;-76
2023/04/03 14:52:22;;;;;;;1.27;0.82;;;;;;;;;;4975150;28;20261;-76
2023/04/03 14:54:48;;;;;;;2.78;0.70;;;;;;;;;;4970494;28;20226;-78
2023/04/03 14:57:15;;;;;;;2.03;0.60;;;;;;;;;;4975446;28;20255;-79
2023/04/03 14:59:40;;;;;;;2.55;0.85;;;;;;;;;;4974014;28;20199;-78
2023/04/03 15:02:28;;;;;;;0.88;0.80;;;;;;;;;;4972719;28;20192;-77
2023/04/03 15:04:54;;;;;;;2.17;1.00;;;;;;;;;;4968072;28;20192;-77
2023/04/03 15:07:19;;;;;;;1.77;0.70;;;;;;;;;;4970820;28;20188;-77
2023/04/03 15:09:45;;;;;;;1.80;1.00;;;;;;;;;;4975618;28;20180;-77
2023/04/03 15:12:10;;;;;;;4.55;0.70;;;;;;;;;;4976100;28;20334;-76